sensor_id;sensor_type;location;lat;lon;timestamp;P1;durP1;ratioP1;P2;durP2;ratioP2
16387;SDS011;8303;53.446;9.988;2022-12-18T00:00:44;26.93;;;17.40;;
16387;SDS011;8303;53.446;9.988;2022-12-18T00:03:13;32.53;;;16.77;;
16387;SDS011;8303;53.446;9.988;2022-12-18T00:05:45;25.23;;;17.23;;
16387;SDS011;8303;53.446;9.988;2022-12-18T00:08:13;25.37;;;17.17;;
16387;SDS011;8303;53.446;9.988;2022-12-18T00:10:42;24.53;;;17.60;;
16387;SDS011;8303;53.446;9.988;2022-12-18T00:13:09;32.57;;;17.13;;
16387;SDS011;8303;53.446;9.988;2022-12-18T00:15:36;23.57;;;16.70;;
16387;SDS011;8303;53.446;9.988;2022-12-18T00:18:04;26.00;;;16.30;;
16387;SDS011;8303;53.446;9.988;2022-12-18T00:20:35;26.30;;;17.43;;
16387;SDS011;8303;53.446;9.988;2022-12-18T00:23:02;26.20;;;16.63;;
16387;SDS011;8303;53.446;9.988;2022-12-18T00:25:29;24.97;;;16.23;;
16387;SDS011;8303;53.446;9.988;2022-12-18T00:27:57;27.63;;;16.03;;
16387;SDS011;8303;53.446;9.988;2022-12-18T00:30:24;21.13;;;15.90;;
16387;SDS011;8303;53.446;9.988;2022-12-18T00:32:51;25.70;;;18.20;;
16387;SDS011;8303;53.446;9.988;2022-12-18T00:35:18;24.10;;;16.60;;
16387;SDS011;8303;53.446;9.988;2022-12-18T00:37:44;31.17;;;17.67;;
16387;SDS011;8303;53.446;9.988;2022-12-18T00:40:11;24.70;;;17.27;;
16387;SDS011;8303;53.446;9.988;2022-12-18T00:42:38;25.70;;;16.30;;
16387;SDS011;8303;53.446;9.988;2022-12-18T00:45:22;22.30;;;16.37;;
16387;SDS011;8303;53.446;9.988;2022-12-18T00:47:49;23.20;;;16.50;;
16387;SDS011;8303;53.446;9.988;2022-12-18T00:50:16;23.07;;;15.67;;
16387;SDS011;8303;53.446;9.988;2022-12-18T00:52:43;27.77;;;18.27;;
16387;SDS011;8303;53.446;9.988;2022-12-18T00:55:10;25.03;;;17.30;;
16387;SDS011;8303;53.446;9.988;2022-12-18T00:57:37;25.30;;;17.17;;
16387;SDS011;8303;53.446;9.988;2022-12-18T01:00:05;32.97;;;17.93;;
16387;SDS011;8303;53.446;9.988;2022-12-18T01:02:35;25.80;;;17.73;;
16387;SDS011;8303;53.446;9.988;2022-12-18T01:05:02;24.80;;;17.17;;
16387;SDS011;8303;53.446;9.988;2022-12-18T01:07:29;29.17;;;18.27;;
16387;SDS011;8303;53.446;9.988;2022-12-18T01:09:56;25.97;;;16.77;;
16387;SDS011;8303;53.446;9.988;2022-12-18T01:12:23;26.97;;;17.57;;
16387;SDS011;8303;53.446;9.988;2022-12-18T01:14:50;27.83;;;17.57;;
16387;SDS011;8303;53.446;9.988;2022-12-18T01:17:17;27.70;;;17.40;;
16387;SDS011;8303;53.446;9.988;2022-12-18T01:19:45;24.07;;;17.30;;
16387;SDS011;8303;53.446;9.988;2022-12-18T01:22:13;21.70;;;15.83;;
16387;SDS011;8303;53.446;9.988;2022-12-18T01:24:40;21.03;;;16.17;;
16387;SDS011;8303;53.446;9.988;2022-12-18T01:27:07;25.37;;;16.70;;
16387;SDS011;8303;53.446;9.988;2022-12-18T01:29:34;21.53;;;14.97;;
16387;SDS011;8303;53.446;9.988;2022-12-18T01:32:00;22.90;;;16.03;;
16387;SDS011;8303;53.446;9.988;2022-12-18T01:34:27;26.13;;;16.50;;
16387;SDS011;8303;53.446;9.988;2022-12-18T01:36:55;24.30;;;15.40;;
16387;SDS011;8303;53.446;9.988;2022-12-18T01:39:22;24.07;;;16.13;;
16387;SDS011;8303;53.446;9.988;2022-12-18T01:41:49;27.50;;;16.73;;
16387;SDS011;8303;53.446;9.988;2022-12-18T01:47:36;23.57;;;16.43;;
16387;SDS011;8303;53.446;9.988;2022-12-18T01:50:08;22.10;;;16.33;;
16387;SDS011;8303;53.446;9.988;2022-12-18T01:52:38;28.60;;;15.77;;
16387;SDS011;8303;53.446;9.988;2022-12-18T01:55:09;24.33;;;16.80;;
16387;SDS011;8303;53.446;9.988;2022-12-18T01:57:36;26.30;;;16.03;;
16387;SDS011;8303;53.446;9.988;2022-12-18T02:00:06;22.93;;;16.20;;
16387;SDS011;8303;53.446;9.988;2022-12-18T02:02:34;20.37;;;15.40;;
16387;SDS011;8303;53.446;9.988;2022-12-18T02:05:02;26.10;;;16.60;;
16387;SDS011;8303;53.446;9.988;2022-12-18T02:07:32;25.57;;;16.17;;
16387;SDS011;8303;53.446;9.988;2022-12-18T02:10:10;27.80;;;16.57;;
16387;SDS011;8303;53.446;9.988;2022-12-18T02:12:42;26.57;;;15.40;;
16387;SDS011;8303;53.446;9.988;2022-12-18T02:15:15;29.40;;;16.23;;
16387;SDS011;8303;53.446;9.988;2022-12-18T02:17:47;24.03;;;15.17;;
16387;SDS011;8303;53.446;9.988;2022-12-18T02:20:20;25.47;;;15.37;;
16387;SDS011;8303;53.446;9.988;2022-12-18T02:22:58;22.07;;;15.47;;
16387;SDS011;8303;53.446;9.988;2022-12-18T02:25:40;28.53;;;15.10;;
16387;SDS011;8303;53.446;9.988;2022-12-18T02:28:31;21.63;;;13.27;;
16387;SDS011;8303;53.446;9.988;2022-12-18T02:31:02;24.30;;;14.87;;
16387;SDS011;8303;53.446;9.988;2022-12-18T02:33:32;24.80;;;15.40;;
16387;SDS011;8303;53.446;9.988;2022-12-18T02:36:01;19.67;;;14.07;;
16387;SDS011;8303;53.446;9.988;2022-12-18T02:38:29;21.07;;;15.63;;
16387;SDS011;8303;53.446;9.988;2022-12-18T02:40:57;28.37;;;16.03;;
16387;SDS011;8303;53.446;9.988;2022-12-18T02:43:26;20.40;;;16.63;;
16387;SDS011;8303;53.446;9.988;2022-12-18T02:45:53;22.60;;;15.47;;
16387;SDS011;8303;53.446;9.988;2022-12-18T02:48:23;27.83;;;15.87;;
16387;SDS011;8303;53.446;9.988;2022-12-18T02:50:55;23.07;;;14.77;;
16387;SDS011;8303;53.446;9.988;2022-12-18T02:53:28;25.00;;;14.87;;
16387;SDS011;8303;53.446;9.988;2022-12-18T02:56:03;17.23;;;13.77;;
16387;SDS011;8303;53.446;9.988;2022-12-18T02:58:36;20.60;;;13.60;;
16387;SDS011;8303;53.446;9.988;2022-12-18T03:01:11;27.27;;;15.47;;
16387;SDS011;8303;53.446;9.988;2022-12-18T03:03:44;21.63;;;15.20;;
16387;SDS011;8303;53.446;9.988;2022-12-18T03:06:18;21.90;;;13.90;;
16387;SDS011;8303;53.446;9.988;2022-12-18T03:08:50;21.07;;;14.43;;
16387;SDS011;8303;53.446;9.988;2022-12-18T03:11:22;26.93;;;15.63;;
16387;SDS011;8303;53.446;9.988;2022-12-18T03:14:06;22.93;;;14.83;;
16387;SDS011;8303;53.446;9.988;2022-12-18T03:16:35;19.60;;;14.30;;
16387;SDS011;8303;53.446;9.988;2022-12-18T03:19:04;17.87;;;15.63;;
16387;SDS011;8303;53.446;9.988;2022-12-18T03:21:36;22.50;;;15.20;;
16387;SDS011;8303;53.446;9.988;2022-12-18T03:24:07;19.47;;;14.37;;
16387;SDS011;8303;53.446;9.988;2022-12-18T03:26:35;24.00;;;15.93;;
16387;SDS011;8303;53.446;9.988;2022-12-18T03:29:07;23.20;;;15.30;;
16387;SDS011;8303;53.446;9.988;2022-12-18T03:31:39;19.70;;;14.33;;
16387;SDS011;8303;53.446;9.988;2022-12-18T03:34:09;23.30;;;14.60;;
16387;SDS011;8303;53.446;9.988;2022-12-18T03:36:40;23.23;;;14.93;;
16387;SDS011;8303;53.446;9.988;2022-12-18T03:39:07;27.80;;;14.23;;
16387;SDS011;8303;53.446;9.988;2022-12-18T03:41:36;20.47;;;14.50;;
16387;SDS011;8303;53.446;9.988;2022-12-18T03:44:11;23.30;;;14.77;;
16387;SDS011;8303;53.446;9.988;2022-12-18T03:46:41;19.57;;;15.00;;
16387;SDS011;8303;53.446;9.988;2022-12-18T03:49:14;19.63;;;14.37;;
16387;SDS011;8303;53.446;9.988;2022-12-18T03:51:49;18.47;;;14.67;;
16387;SDS011;8303;53.446;9.988;2022-12-18T03:54:20;18.17;;;14.07;;
16387;SDS011;8303;53.446;9.988;2022-12-18T03:56:48;16.93;;;13.50;;
16387;SDS011;8303;53.446;9.988;2022-12-18T03:59:22;16.60;;;13.67;;
16387;SDS011;8303;53.446;9.988;2022-12-18T04:01:51;25.57;;;15.93;;
16387;SDS011;8303;53.446;9.988;2022-12-18T04:04:19;19.23;;;14.43;;
16387;SDS011;8303;53.446;9.988;2022-12-18T04:06:49;18.90;;;13.83;;
16387;SDS011;8303;53.446;9.988;2022-12-18T04:09:17;23.07;;;14.50;;
16387;SDS011;8303;53.446;9.988;2022-12-18T04:11:45;24.60;;;15.07;;
16387;SDS011;8303;53.446;9.988;2022-12-18T04:14:12;20.00;;;13.83;;
16387;SDS011;8303;53.446;9.988;2022-12-18T04:16:41;22.10;;;16.13;;
16387;SDS011;8303;53.446;9.988;2022-12-18T04:19:08;27.07;;;14.80;;
16387;SDS011;8303;53.446;9.988;2022-12-18T04:21:35;18.70;;;15.23;;
16387;SDS011;8303;53.446;9.988;2022-12-18T04:24:02;27.67;;;14.97;;
16387;SDS011;8303;53.446;9.988;2022-12-18T04:26:29;31.57;;;17.10;;
16387;SDS011;8303;53.446;9.988;2022-12-18T04:28:56;21.50;;;14.70;;
16387;SDS011;8303;53.446;9.988;2022-12-18T04:31:23;22.13;;;14.87;;
16387;SDS011;8303;53.446;9.988;2022-12-18T04:33:51;19.10;;;15.33;;
16387;SDS011;8303;53.446;9.988;2022-12-18T04:36:18;19.73;;;13.93;;
16387;SDS011;8303;53.446;9.988;2022-12-18T04:38:45;20.77;;;13.90;;
16387;SDS011;8303;53.446;9.988;2022-12-18T04:41:12;19.37;;;13.93;;
16387;SDS011;8303;53.446;9.988;2022-12-18T04:43:39;24.47;;;13.93;;
16387;SDS011;8303;53.446;9.988;2022-12-18T04:46:07;19.50;;;14.03;;
16387;SDS011;8303;53.446;9.988;2022-12-18T04:48:34;18.70;;;13.90;;
16387;SDS011;8303;53.446;9.988;2022-12-18T04:51:03;24.90;;;13.73;;
16387;SDS011;8303;53.446;9.988;2022-12-18T04:53:30;20.60;;;15.77;;
16387;SDS011;8303;53.446;9.988;2022-12-18T04:56:04;18.50;;;15.50;;
16387;SDS011;8303;53.446;9.988;2022-12-18T04:58:32;24.07;;;15.87;;
16387;SDS011;8303;53.446;9.988;2022-12-18T05:00:59;25.17;;;16.13;;
16387;SDS011;8303;53.446;9.988;2022-12-18T05:03:27;23.23;;;15.13;;
16387;SDS011;8303;53.446;9.988;2022-12-18T05:05:53;21.47;;;14.87;;
16387;SDS011;8303;53.446;9.988;2022-12-18T05:08:22;28.10;;;14.67;;
16387;SDS011;8303;53.446;9.988;2022-12-18T05:10:49;21.67;;;14.37;;
16387;SDS011;8303;53.446;9.988;2022-12-18T05:13:16;19.83;;;13.73;;
16387;SDS011;8303;53.446;9.988;2022-12-18T05:15:43;21.77;;;15.50;;
16387;SDS011;8303;53.446;9.988;2022-12-18T05:18:17;24.53;;;14.07;;
16387;SDS011;8303;53.446;9.988;2022-12-18T05:20:44;20.03;;;14.07;;
16387;SDS011;8303;53.446;9.988;2022-12-18T05:23:11;21.27;;;14.50;;
16387;SDS011;8303;53.446;9.988;2022-12-18T05:25:39;18.63;;;13.17;;
16387;SDS011;8303;53.446;9.988;2022-12-18T05:28:06;17.77;;;14.23;;
16387;SDS011;8303;53.446;9.988;2022-12-18T05:30:33;25.07;;;13.43;;
16387;SDS011;8303;53.446;9.988;2022-12-18T05:33:00;15.80;;;12.47;;
16387;SDS011;8303;53.446;9.988;2022-12-18T05:35:27;20.47;;;14.27;;
16387;SDS011;8303;53.446;9.988;2022-12-18T05:37:54;15.20;;;12.47;;
16387;SDS011;8303;53.446;9.988;2022-12-18T05:40:20;21.07;;;13.43;;
16387;SDS011;8303;53.446;9.988;2022-12-18T05:42:49;20.37;;;14.87;;
16387;SDS011;8303;53.446;9.988;2022-12-18T05:45:15;20.13;;;14.63;;
16387;SDS011;8303;53.446;9.988;2022-12-18T05:47:42;18.80;;;13.63;;
16387;SDS011;8303;53.446;9.988;2022-12-18T05:50:09;21.07;;;15.03;;
16387;SDS011;8303;53.446;9.988;2022-12-18T05:52:36;19.13;;;13.87;;
16387;SDS011;8303;53.446;9.988;2022-12-18T05:55:03;24.80;;;13.70;;
16387;SDS011;8303;53.446;9.988;2022-12-18T05:57:30;23.10;;;16.23;;
16387;SDS011;8303;53.446;9.988;2022-12-18T05:59:58;19.13;;;14.53;;
16387;SDS011;8303;53.446;9.988;2022-12-18T06:02:25;21.60;;;14.87;;
16387;SDS011;8303;53.446;9.988;2022-12-18T06:04:52;19.40;;;13.50;;
16387;SDS011;8303;53.446;9.988;2022-12-18T06:07:20;25.60;;;14.00;;
16387;SDS011;8303;53.446;9.988;2022-12-18T06:09:47;21.80;;;13.83;;
16387;SDS011;8303;53.446;9.988;2022-12-18T06:12:13;21.50;;;13.63;;
16387;SDS011;8303;53.446;9.988;2022-12-18T06:14:40;19.47;;;14.90;;
16387;SDS011;8303;53.446;9.988;2022-12-18T06:17:09;25.40;;;14.63;;
16387;SDS011;8303;53.446;9.988;2022-12-18T06:19:36;21.47;;;14.50;;
16387;SDS011;8303;53.446;9.988;2022-12-18T06:22:02;24.10;;;13.90;;
16387;SDS011;8303;53.446;9.988;2022-12-18T06:24:29;23.83;;;15.10;;
16387;SDS011;8303;53.446;9.988;2022-12-18T06:26:56;18.27;;;14.43;;
16387;SDS011;8303;53.446;9.988;2022-12-18T06:29:23;19.80;;;13.13;;
16387;SDS011;8303;53.446;9.988;2022-12-18T06:31:50;23.70;;;14.87;;
16387;SDS011;8303;53.446;9.988;2022-12-18T06:34:18;20.77;;;14.47;;
16387;SDS011;8303;53.446;9.988;2022-12-18T06:36:45;16.80;;;13.87;;
16387;SDS011;8303;53.446;9.988;2022-12-18T06:39:12;22.17;;;15.63;;
16387;SDS011;8303;53.446;9.988;2022-12-18T06:41:38;21.07;;;13.83;;
16387;SDS011;8303;53.446;9.988;2022-12-18T06:44:05;16.70;;;14.43;;
16387;SDS011;8303;53.446;9.988;2022-12-18T06:46:32;22.77;;;15.17;;
16387;SDS011;8303;53.446;9.988;2022-12-18T06:48:59;16.40;;;14.10;;
16387;SDS011;8303;53.446;9.988;2022-12-18T06:51:27;19.77;;;13.63;;
16387;SDS011;8303;53.446;9.988;2022-12-18T06:53:54;23.83;;;16.17;;
16387;SDS011;8303;53.446;9.988;2022-12-18T06:56:21;18.37;;;15.67;;
16387;SDS011;8303;53.446;9.988;2022-12-18T06:58:48;19.93;;;14.90;;
16387;SDS011;8303;53.446;9.988;2022-12-18T07:01:15;22.97;;;15.13;;
16387;SDS011;8303;53.446;9.988;2022-12-18T07:03:42;22.70;;;14.00;;
16387;SDS011;8303;53.446;9.988;2022-12-18T07:06:12;23.50;;;14.97;;
16387;SDS011;8303;53.446;9.988;2022-12-18T07:08:42;22.43;;;14.47;;
16387;SDS011;8303;53.446;9.988;2022-12-18T07:11:09;22.23;;;15.83;;
16387;SDS011;8303;53.446;9.988;2022-12-18T07:13:35;24.23;;;14.93;;
16387;SDS011;8303;53.446;9.988;2022-12-18T07:16:03;30.00;;;16.77;;
16387;SDS011;8303;53.446;9.988;2022-12-18T07:18:31;20.00;;;14.10;;
16387;SDS011;8303;53.446;9.988;2022-12-18T07:21:01;18.37;;;14.33;;
16387;SDS011;8303;53.446;9.988;2022-12-18T07:23:29;17.03;;;13.33;;
16387;SDS011;8303;53.446;9.988;2022-12-18T07:26:01;21.70;;;15.23;;
16387;SDS011;8303;53.446;9.988;2022-12-18T07:28:29;24.07;;;15.20;;
16387;SDS011;8303;53.446;9.988;2022-12-18T07:30:56;20.27;;;13.80;;
16387;SDS011;8303;53.446;9.988;2022-12-18T07:33:23;18.20;;;13.50;;
16387;SDS011;8303;53.446;9.988;2022-12-18T07:35:51;18.70;;;13.57;;
16387;SDS011;8303;53.446;9.988;2022-12-18T07:38:20;20.10;;;15.23;;
16387;SDS011;8303;53.446;9.988;2022-12-18T07:40:47;19.67;;;14.77;;
16387;SDS011;8303;53.446;9.988;2022-12-18T07:43:15;16.00;;;14.23;;
16387;SDS011;8303;53.446;9.988;2022-12-18T07:45:42;22.83;;;15.93;;
16387;SDS011;8303;53.446;9.988;2022-12-18T07:48:09;26.60;;;16.43;;
16387;SDS011;8303;53.446;9.988;2022-12-18T07:50:36;24.50;;;15.37;;
16387;SDS011;8303;53.446;9.988;2022-12-18T07:53:03;20.97;;;14.33;;
16387;SDS011;8303;53.446;9.988;2022-12-18T07:55:30;20.97;;;15.17;;
16387;SDS011;8303;53.446;9.988;2022-12-18T07:58:00;23.13;;;14.83;;
16387;SDS011;8303;53.446;9.988;2022-12-18T08:00:29;17.80;;;13.77;;
16387;SDS011;8303;53.446;9.988;2022-12-18T08:02:56;21.53;;;15.87;;
16387;SDS011;8303;53.446;9.988;2022-12-18T08:05:23;20.80;;;14.03;;
16387;SDS011;8303;53.446;9.988;2022-12-18T08:07:50;16.87;;;13.73;;
16387;SDS011;8303;53.446;9.988;2022-12-18T08:10:17;20.17;;;15.43;;
16387;SDS011;8303;53.446;9.988;2022-12-18T08:12:44;29.07;;;15.73;;
16387;SDS011;8303;53.446;9.988;2022-12-18T08:15:11;23.40;;;15.67;;
16387;SDS011;8303;53.446;9.988;2022-12-18T08:17:39;20.53;;;15.67;;
16387;SDS011;8303;53.446;9.988;2022-12-18T08:20:06;23.03;;;15.00;;
16387;SDS011;8303;53.446;9.988;2022-12-18T08:22:37;23.33;;;16.97;;
16387;SDS011;8303;53.446;9.988;2022-12-18T08:25:04;21.87;;;14.10;;
16387;SDS011;8303;53.446;9.988;2022-12-18T08:27:32;19.40;;;13.13;;
16387;SDS011;8303;53.446;9.988;2022-12-18T08:29:59;19.17;;;14.57;;
16387;SDS011;8303;53.446;9.988;2022-12-18T08:32:26;19.43;;;14.90;;
16387;SDS011;8303;53.446;9.988;2022-12-18T08:34:55;16.67;;;14.07;;
16387;SDS011;8303;53.446;9.988;2022-12-18T08:37:22;26.03;;;15.07;;
16387;SDS011;8303;53.446;9.988;2022-12-18T08:39:48;24.63;;;14.87;;
16387;SDS011;8303;53.446;9.988;2022-12-18T08:42:15;24.50;;;16.30;;
16387;SDS011;8303;53.446;9.988;2022-12-18T08:45:00;20.57;;;14.37;;
16387;SDS011;8303;53.446;9.988;2022-12-18T08:47:27;21.00;;;16.37;;
16387;SDS011;8303;53.446;9.988;2022-12-18T08:49:55;20.57;;;15.47;;
16387;SDS011;8303;53.446;9.988;2022-12-18T08:52:22;25.90;;;14.60;;
16387;SDS011;8303;53.446;9.988;2022-12-18T08:54:49;17.90;;;14.87;;
16387;SDS011;8303;53.446;9.988;2022-12-18T08:57:16;29.10;;;17.30;;
16387;SDS011;8303;53.446;9.988;2022-12-18T08:59:43;22.07;;;14.73;;
16387;SDS011;8303;53.446;9.988;2022-12-18T09:02:10;27.30;;;15.53;;
16387;SDS011;8303;53.446;9.988;2022-12-18T09:04:37;24.50;;;19.40;;
16387;SDS011;8303;53.446;9.988;2022-12-18T09:07:06;23.80;;;15.40;;
16387;SDS011;8303;53.446;9.988;2022-12-18T09:09:34;22.03;;;17.17;;
16387;SDS011;8303;53.446;9.988;2022-12-18T09:12:02;28.20;;;15.43;;
16387;SDS011;8303;53.446;9.988;2022-12-18T09:14:29;24.30;;;18.13;;
16387;SDS011;8303;53.446;9.988;2022-12-18T09:16:56;23.50;;;16.37;;
16387;SDS011;8303;53.446;9.988;2022-12-18T09:19:23;18.47;;;14.67;;
16387;SDS011;8303;53.446;9.988;2022-12-18T09:21:49;26.67;;;16.27;;
16387;SDS011;8303;53.446;9.988;2022-12-18T09:24:18;33.53;;;16.03;;
16387;SDS011;8303;53.446;9.988;2022-12-18T09:26:44;22.33;;;16.50;;
16387;SDS011;8303;53.446;9.988;2022-12-18T09:29:11;23.00;;;16.47;;
16387;SDS011;8303;53.446;9.988;2022-12-18T09:31:38;23.40;;;14.13;;
16387;SDS011;8303;53.446;9.988;2022-12-18T09:34:05;24.17;;;14.70;;
16387;SDS011;8303;53.446;9.988;2022-12-18T09:36:32;19.00;;;12.30;;
16387;SDS011;8303;53.446;9.988;2022-12-18T09:38:59;23.87;;;13.80;;
16387;SDS011;8303;53.446;9.988;2022-12-18T09:41:32;22.67;;;14.50;;
16387;SDS011;8303;53.446;9.988;2022-12-18T09:44:10;14.80;;;12.53;;
16387;SDS011;8303;53.446;9.988;2022-12-18T09:46:45;22.07;;;13.50;;
16387;SDS011;8303;53.446;9.988;2022-12-18T09:49:15;17.27;;;12.60;;
16387;SDS011;8303;53.446;9.988;2022-12-18T09:51:47;29.37;;;13.93;;
16387;SDS011;8303;53.446;9.988;2022-12-18T09:54:20;19.10;;;13.73;;
16387;SDS011;8303;53.446;9.988;2022-12-18T09:56:51;22.67;;;13.67;;
16387;SDS011;8303;53.446;9.988;2022-12-18T09:59:21;26.37;;;13.83;;
16387;SDS011;8303;53.446;9.988;2022-12-18T10:01:50;18.93;;;13.80;;
16387;SDS011;8303;53.446;9.988;2022-12-18T10:04:17;24.07;;;15.30;;
16387;SDS011;8303;53.446;9.988;2022-12-18T10:06:46;24.27;;;16.47;;
16387;SDS011;8303;53.446;9.988;2022-12-18T10:09:20;22.60;;;15.27;;
16387;SDS011;8303;53.446;9.988;2022-12-18T10:11:58;24.30;;;15.50;;
16387;SDS011;8303;53.446;9.988;2022-12-18T10:14:30;21.43;;;14.20;;
16387;SDS011;8303;53.446;9.988;2022-12-18T10:17:03;25.80;;;14.17;;
16387;SDS011;8303;53.446;9.988;2022-12-18T10:19:39;23.20;;;16.10;;
16387;SDS011;8303;53.446;9.988;2022-12-18T10:22:17;19.73;;;15.17;;
16387;SDS011;8303;53.446;9.988;2022-12-18T10:24:57;18.97;;;15.03;;
16387;SDS011;8303;53.446;9.988;2022-12-18T10:27:29;22.67;;;14.60;;
16387;SDS011;8303;53.446;9.988;2022-12-18T10:29:57;30.80;;;14.80;;
16387;SDS011;8303;53.446;9.988;2022-12-18T10:32:24;22.77;;;15.03;;
16387;SDS011;8303;53.446;9.988;2022-12-18T10:34:54;22.60;;;16.17;;
16387;SDS011;8303;53.446;9.988;2022-12-18T10:37:23;22.03;;;14.93;;
16387;SDS011;8303;53.446;9.988;2022-12-18T10:40:04;29.13;;;16.07;;
16387;SDS011;8303;53.446;9.988;2022-12-18T10:42:38;27.23;;;14.97;;
16387;SDS011;8303;53.446;9.988;2022-12-18T10:45:08;22.53;;;15.27;;
16387;SDS011;8303;53.446;9.988;2022-12-18T10:47:37;27.83;;;16.50;;
16387;SDS011;8303;53.446;9.988;2022-12-18T10:50:16;34.27;;;19.17;;
16387;SDS011;8303;53.446;9.988;2022-12-18T10:52:52;20.60;;;14.77;;
16387;SDS011;8303;53.446;9.988;2022-12-18T10:55:21;16.93;;;13.73;;
16387;SDS011;8303;53.446;9.988;2022-12-18T10:57:49;23.67;;;14.77;;
16387;SDS011;8303;53.446;9.988;2022-12-18T11:00:22;23.87;;;15.07;;
16387;SDS011;8303;53.446;9.988;2022-12-18T11:02:51;22.93;;;14.97;;
16387;SDS011;8303;53.446;9.988;2022-12-18T11:05:25;25.10;;;15.73;;
16387;SDS011;8303;53.446;9.988;2022-12-18T11:07:54;22.53;;;14.83;;
16387;SDS011;8303;53.446;9.988;2022-12-18T11:10:22;26.43;;;14.87;;
16387;SDS011;8303;53.446;9.988;2022-12-18T11:12:55;25.70;;;15.17;;
16387;SDS011;8303;53.446;9.988;2022-12-18T11:15:34;20.77;;;14.57;;
16387;SDS011;8303;53.446;9.988;2022-12-18T11:18:01;21.67;;;15.77;;
16387;SDS011;8303;53.446;9.988;2022-12-18T11:20:30;23.93;;;15.43;;
16387;SDS011;8303;53.446;9.988;2022-12-18T11:22:58;25.03;;;17.33;;
16387;SDS011;8303;53.446;9.988;2022-12-18T11:25:27;23.93;;;14.97;;
16387;SDS011;8303;53.446;9.988;2022-12-18T11:27:56;22.23;;;14.07;;
16387;SDS011;8303;53.446;9.988;2022-12-18T11:30:26;29.10;;;17.00;;
16387;SDS011;8303;53.446;9.988;2022-12-18T11:32:55;24.67;;;16.07;;
16387;SDS011;8303;53.446;9.988;2022-12-18T11:35:30;24.00;;;15.73;;
16387;SDS011;8303;53.446;9.988;2022-12-18T11:38:14;25.93;;;14.80;;
16387;SDS011;8303;53.446;9.988;2022-12-18T11:40:49;24.80;;;15.73;;
16387;SDS011;8303;53.446;9.988;2022-12-18T11:43:25;29.40;;;16.30;;
16387;SDS011;8303;53.446;9.988;2022-12-18T11:45:55;22.67;;;15.27;;
16387;SDS011;8303;53.446;9.988;2022-12-18T11:48:26;24.50;;;16.60;;
16387;SDS011;8303;53.446;9.988;2022-12-18T11:50:56;25.23;;;15.07;;
16387;SDS011;8303;53.446;9.988;2022-12-18T11:53:25;22.93;;;15.27;;
16387;SDS011;8303;53.446;9.988;2022-12-18T11:56:00;29.07;;;15.73;;
16387;SDS011;8303;53.446;9.988;2022-12-18T11:58:40;23.10;;;16.30;;
16387;SDS011;8303;53.446;9.988;2022-12-18T12:01:15;21.77;;;14.17;;
16387;SDS011;8303;53.446;9.988;2022-12-18T12:04:06;25.47;;;15.37;;
16387;SDS011;8303;53.446;9.988;2022-12-18T12:06:49;28.23;;;16.10;;
16387;SDS011;8303;53.446;9.988;2022-12-18T12:09:23;25.17;;;15.93;;
16387;SDS011;8303;53.446;9.988;2022-12-18T12:11:58;39.50;;;22.27;;
16387;SDS011;8303;53.446;9.988;2022-12-18T12:14:44;30.40;;;17.77;;
16387;SDS011;8303;53.446;9.988;2022-12-18T12:17:20;23.40;;;16.50;;
16387;SDS011;8303;53.446;9.988;2022-12-18T12:19:56;24.63;;;16.50;;
16387;SDS011;8303;53.446;9.988;2022-12-18T12:22:32;27.47;;;15.67;;
16387;SDS011;8303;53.446;9.988;2022-12-18T12:25:13;24.73;;;16.27;;
16387;SDS011;8303;53.446;9.988;2022-12-18T12:27:49;24.63;;;15.50;;
16387;SDS011;8303;53.446;9.988;2022-12-18T12:30:28;25.03;;;15.73;;
16387;SDS011;8303;53.446;9.988;2022-12-18T12:33:04;24.87;;;15.23;;
16387;SDS011;8303;53.446;9.988;2022-12-18T12:35:44;30.97;;;18.87;;
16387;SDS011;8303;53.446;9.988;2022-12-18T12:38:16;29.53;;;17.13;;
16387;SDS011;8303;53.446;9.988;2022-12-18T12:40:48;28.87;;;17.70;;
16387;SDS011;8303;53.446;9.988;2022-12-18T12:43:22;28.67;;;16.70;;
16387;SDS011;8303;53.446;9.988;2022-12-18T12:45:55;33.90;;;19.57;;
16387;SDS011;8303;53.446;9.988;2022-12-18T12:48:32;30.73;;;19.00;;
16387;SDS011;8303;53.446;9.988;2022-12-18T12:51:04;34.60;;;19.47;;
16387;SDS011;8303;53.446;9.988;2022-12-18T12:53:37;30.20;;;17.93;;
16387;SDS011;8303;53.446;9.988;2022-12-18T12:56:06;30.17;;;17.80;;
16387;SDS011;8303;53.446;9.988;2022-12-18T12:58:38;33.07;;;19.33;;
16387;SDS011;8303;53.446;9.988;2022-12-18T13:01:17;30.20;;;18.63;;
16387;SDS011;8303;53.446;9.988;2022-12-18T13:03:54;36.53;;;19.33;;
16387;SDS011;8303;53.446;9.988;2022-12-18T13:06:35;37.17;;;20.20;;
16387;SDS011;8303;53.446;9.988;2022-12-18T13:09:08;33.83;;;18.50;;
16387;SDS011;8303;53.446;9.988;2022-12-18T13:11:36;39.00;;;20.17;;
16387;SDS011;8303;53.446;9.988;2022-12-18T13:14:23;33.17;;;19.30;;
16387;SDS011;8303;53.446;9.988;2022-12-18T13:19:49;32.30;;;17.70;;
16387;SDS011;8303;53.446;9.988;2022-12-18T13:22:20;36.83;;;18.40;;
16387;SDS011;8303;53.446;9.988;2022-12-18T13:24:48;34.23;;;18.27;;
16387;SDS011;8303;53.446;9.988;2022-12-18T13:33:34;35.13;;;18.27;;
16387;SDS011;8303;53.446;9.988;2022-12-18T13:39:21;36.13;;;19.40;;
16387;SDS011;8303;53.446;9.988;2022-12-18T13:41:51;38.50;;;19.67;;
16387;SDS011;8303;53.446;9.988;2022-12-18T13:44:24;39.70;;;18.67;;
16387;SDS011;8303;53.446;9.988;2022-12-18T13:46:57;40.20;;;22.17;;
16387;SDS011;8303;53.446;9.988;2022-12-18T13:49:27;36.33;;;20.43;;
16387;SDS011;8303;53.446;9.988;2022-12-18T13:52:02;35.97;;;19.83;;
16387;SDS011;8303;53.446;9.988;2022-12-18T13:54:41;37.87;;;20.73;;
16387;SDS011;8303;53.446;9.988;2022-12-18T13:57:24;36.00;;;19.67;;
16387;SDS011;8303;53.446;9.988;2022-12-18T13:59:54;40.57;;;20.00;;
16387;SDS011;8303;53.446;9.988;2022-12-18T14:02:22;39.70;;;19.43;;
16387;SDS011;8303;53.446;9.988;2022-12-18T14:04:52;34.17;;;20.37;;
16387;SDS011;8303;53.446;9.988;2022-12-18T14:07:20;36.30;;;19.43;;
16387;SDS011;8303;53.446;9.988;2022-12-18T14:09:50;32.13;;;19.50;;
16387;SDS011;8303;53.446;9.988;2022-12-18T14:12:20;43.97;;;20.67;;
16387;SDS011;8303;53.446;9.988;2022-12-18T14:15:06;33.20;;;19.67;;
16387;SDS011;8303;53.446;9.988;2022-12-18T14:17:46;37.60;;;20.13;;
16387;SDS011;8303;53.446;9.988;2022-12-18T14:20:15;39.03;;;21.13;;
16387;SDS011;8303;53.446;9.988;2022-12-18T14:22:44;34.77;;;20.50;;
16387;SDS011;8303;53.446;9.988;2022-12-18T14:25:16;40.80;;;20.10;;
16387;SDS011;8303;53.446;9.988;2022-12-18T14:27:45;41.10;;;20.50;;
16387;SDS011;8303;53.446;9.988;2022-12-18T14:30:24;38.23;;;20.27;;
16387;SDS011;8303;53.446;9.988;2022-12-18T14:32:59;36.97;;;19.90;;
16387;SDS011;8303;53.446;9.988;2022-12-18T14:35:28;38.60;;;20.77;;
16387;SDS011;8303;53.446;9.988;2022-12-18T14:38:08;37.30;;;19.97;;
16387;SDS011;8303;53.446;9.988;2022-12-18T14:40:38;41.33;;;20.37;;
16387;SDS011;8303;53.446;9.988;2022-12-18T14:43:08;42.40;;;20.60;;
16387;SDS011;8303;53.446;9.988;2022-12-18T14:45:35;47.60;;;24.30;;
16387;SDS011;8303;53.446;9.988;2022-12-18T14:48:05;39.80;;;20.77;;
16387;SDS011;8303;53.446;9.988;2022-12-18T14:50:36;38.83;;;21.13;;
16387;SDS011;8303;53.446;9.988;2022-12-18T14:53:03;34.50;;;20.77;;
16387;SDS011;8303;53.446;9.988;2022-12-18T14:55:30;46.30;;;20.90;;
16387;SDS011;8303;53.446;9.988;2022-12-18T14:57:56;46.73;;;22.63;;
16387;SDS011;8303;53.446;9.988;2022-12-18T15:00:24;50.30;;;22.63;;
16387;SDS011;8303;53.446;9.988;2022-12-18T15:02:52;40.23;;;20.67;;
16387;SDS011;8303;53.446;9.988;2022-12-18T15:05:24;48.63;;;21.97;;